Time;durP1;ratioP1;P1;durP2;ratioP2;P2;SDS_P1;SDS_P2;PMS_P1;PMS_P2;Temp;Humidity;BMP_temperature;BMP_pressure;BME280_temperature;BME280_humidity;BME280_pressure;Samples;Min_cycle;Max_cycle;Signal;HPM_P1;HPM_P2
2024/01/11 00:00:49;;;;;;;11.83;10.97;;;;;;;-5.19;99.17;99702.75;4114074;28;20237;-51
2024/01/11 00:02:51;;;;;;;11.20;10.23;;;;;;;-5.24;99.15;99696.09;4123852;28;20221;-52
2024/01/11 00:04:52;;;;;;;11.00;9.23;;;;;;;-5.21;99.57;99696.69;4126193;28;20222;-52
2024/01/11 00:06:54;;;;;;;11.20;10.03;;;;;;;-5.21;100.00;99694.03;4120916;28;20270;-52
2024/01/11 00:08:56;;;;;;;9.27;8.47;;;;;;;-5.19;100.00;99694.75;4117292;28;20320;-51
2024/01/11 00:10:58;;;;;;;9.13;7.37;;;;;;;-5.30;99.36;99694.75;4121936;28;20707;-53
2024/01/11 00:13:00;;;;;;;9.43;8.73;;;;;;;-5.24;99.53;99699.59;4126898;28;20679;-53
2024/01/11 00:15:02;;;;;;;8.70;8.13;;;;;;;-5.27;99.73;99699.84;4127603;28;21186;-52
2024/01/11 00:17:04;;;;;;;9.43;8.53;;;;;;;-5.39;99.66;99700.81;4118627;28;20217;-52
2024/01/11 00:19:06;;;;;;;9.90;8.97;;;;;;;-5.32;100.00;99697.53;4119000;28;20210;-52
2024/01/11 00:21:08;;;;;;;9.23;8.43;;;;;;;-5.45;99.95;99690.66;4123845;28;20249;-52
2024/01/11 00:23:10;;;;;;;9.57;8.80;;;;;;;-5.48;100.00;99698.91;4124657;28;20225;-52
2024/01/11 00:25:11;;;;;;;12.77;10.37;;;;;;;-5.47;100.00;99702.38;4131168;28;20296;-52
2024/01/11 00:27:13;;;;;;;11.33;10.03;;;;;;;-5.35;100.00;99685.44;4124173;28;20220;-53
2024/01/11 00:29:15;;;;;;;13.27;9.70;;;;;;;-5.25;100.00;99703.25;4124385;28;20237;-51
2024/01/11 00:31:16;;;;;;;8.20;7.60;;;;;;;-5.36;98.92;99700.56;4120722;28;20230;-52
2024/01/11 00:33:18;;;;;;;7.90;7.20;;;;;;;-5.44;99.75;99700.34;4120410;28;20215;-52
2024/01/11 00:35:20;;;;;;;10.50;9.07;;;;;;;-5.48;100.00;99706.91;4124072;28;20206;-52
2024/01/11 00:37:22;;;;;;;9.30;8.67;;;;;;;-5.53;100.00;99703.72;4123149;28;20218;-52
2024/01/11 00:39:24;;;;;;;15.03;9.33;;;;;;;-5.44;100.00;99707.50;4120182;28;20214;-52
2024/01/11 00:41:26;;;;;;;15.90;10.13;;;;;;;-5.56;100.00;99709.28;4124027;28;20794;-53
2024/01/11 00:43:27;;;;;;;9.13;8.53;;;;;;;-5.59;100.00;99709.53;4118110;28;20221;-52
2024/01/11 00:45:29;;;;;;;9.87;8.97;;;;;;;-5.58;100.00;99705.91;4122248;28;20210;-51
2024/01/11 00:47:31;;;;;;;15.03;11.50;;;;;;;-5.61;100.00;99706.16;4115197;28;20261;-51
2024/01/11 00:49:33;;;;;;;10.13;9.33;;;;;;;-5.65;100.00;99710.03;4117140;28;20233;-53
2024/01/11 00:51:35;;;;;;;10.00;8.93;;;;;;;-5.65;100.00;99712.69;4117458;28;20229;-51
2024/01/11 00:53:36;;;;;;;8.67;7.93;;;;;;;-5.65;100.00;99710.03;4116899;28;20249;-52
2024/01/11 00:55:38;;;;;;;11.50;8.67;;;;;;;-5.67;100.00;99711.97;4121717;28;20761;-53
2024/01/11 00:57:40;;;;;;;10.93;9.83;;;;;;;-5.58;100.00;99711.25;4105862;28;20211;-52
2024/01/11 00:59:42;;;;;;;12.87;8.97;;;;;;;-5.54;100.00;99707.38;4119439;28;20727;-52
2024/01/11 01:01:48;;;;;;;9.97;9.27;;;;;;;-5.65;100.00;99710.03;4117379;28;20231;-53
2024/01/11 01:03:49;;;;;;;10.50;9.60;;;;;;;-5.74;100.00;99716.06;4111245;28;20202;-53
2024/01/11 01:05:51;;;;;;;9.43;8.77;;;;;;;-5.76;100.00;99710.00;4118062;28;20309;-52
2024/01/11 01:07:53;;;;;;;11.37;10.30;;;;;;;-5.70;100.00;99717.50;4114679;28;20216;-53
2024/01/11 01:09:55;;;;;;;10.63;9.77;;;;;;;-5.63;100.00;99713.41;4121139;28;20624;-52
2024/01/11 01:11:57;;;;;;;8.23;7.63;;;;;;;-5.66;100.00;99718.13;4118290;28;20227;-51
2024/01/11 01:13:59;;;;;;;10.13;9.33;;;;;;;-5.78;100.00;99714.59;4120482;28;20868;-52
2024/01/11 01:16:00;;;;;;;11.37;8.07;;;;;;;-5.79;100.00;99707.59;4122038;28;20210;-52
2024/01/11 01:18:02;;;;;;;13.43;7.57;;;;;;;-5.82;100.00;99715.84;4122417;28;20336;-52
2024/01/11 01:20:05;;;;;;;7.83;7.13;;;;;;;-5.84;100.00;99716.94;4120597;28;20214;-51
2024/01/11 01:22:07;;;;;;;9.43;8.73;;;;;;;-5.82;100.00;99718.50;4121869;28;20234;-52
2024/01/11 01:24:09;;;;;;;13.23;7.33;;;;;;;-5.79;100.00;99723.56;4116136;28;20656;-52
2024/01/11 01:26:11;;;;;;;9.23;8.53;;;;;;;-5.73;100.00;99716.91;4117881;28;20707;-52
2024/01/11 01:28:13;;;;;;;7.27;6.67;;;;;;;-5.75;100.00;99714.34;4118912;28;20627;-52
2024/01/11 01:30:14;;;;;;;8.03;7.43;;;;;;;-5.78;100.00;99713.75;4124263;28;20234;-52
2024/01/11 01:32:16;;;;;;;8.07;7.57;;;;;;;-5.83;100.00;99716.81;4121950;28;20749;-52
2024/01/11 01:34:19;;;;;;;11.43;10.33;;;;;;;-5.86;100.00;99721.53;4119205;28;20211;-53
2024/01/11 01:36:21;;;;;;;8.40;7.63;;;;;;;-5.98;100.00;99715.31;4120062;28;20270;-51
2024/01/11 01:38:23;;;;;;;8.37;6.97;;;;;;;-5.91;100.00;99724.53;4120255;28;20624;-51
2024/01/11 01:40:25;;;;;;;9.43;7.63;;;;;;;-5.84;100.00;99723.09;4127636;28;20210;-52
2024/01/11 01:42:27;;;;;;;7.30;6.87;;;;;;;-5.94;100.00;99730.13;4122682;28;20202;-52
2024/01/11 01:44:28;;;;;;;9.47;7.37;;;;;;;-5.95;100.00;99730.22;4119210;28;20675;-51
2024/01/11 01:46:31;;;;;;;9.17;8.53;;;;;;;-5.87;100.00;99731.34;4120745;28;20305;-52
2024/01/11 01:48:33;;;;;;;9.83;8.77;;;;;;;-5.83;100.00;99732.78;4118990;28;20771;-52
2024/01/11 01:50:35;;;;;;;7.27;6.53;;;;;;;-5.90;100.00;99736.91;4120070;28;20238;-53
2024/01/11 01:52:40;;;;;;;7.93;7.50;;;;;;;-5.86;100.00;99738.38;4129188;28;20238;-52
2024/01/11 01:54:41;;;;;;;9.17;8.40;;;;;;;-5.78;100.00;99738.59;4127905;28;20249;-52
2024/01/11 01:56:43;;;;;;;7.07;6.47;;;;;;;-5.77;100.00;99742.13;4134910;28;20764;-51
2024/01/11 01:58:45;;;;;;;10.53;9.27;;;;;;;-6.10;100.00;99745.56;4123393;28;20217;-51
2024/01/11 02:00:49;;;;;;;9.47;8.37;;;;;;;-6.02;100.00;99742.31;4110790;28;20240;-51
2024/01/11 02:02:52;;;;;;;14.03;8.60;;;;;;;-6.01;100.00;99752.00;4127062;28;20213;-51
2024/01/11 02:04:54;;;;;;;9.23;8.47;;;;;;;-5.98;100.00;99755.28;4118707;28;20694;-53
2024/01/11 02:06:57;;;;;;;14.20;9.73;;;;;;;-6.04;100.00;99753.09;4103470;28;20619;-52
2024/01/11 02:09:02;;;;;;;12.57;8.90;;;;;;;-6.01;100.00;99750.19;4120432;28;20229;-52
2024/01/11 02:11:05;;;;;;;10.53;8.27;;;;;;;-6.03;100.00;99754.78;4115822;28;20226;-52
2024/01/11 02:13:07;;;;;;;9.20;8.40;;;;;;;-6.04;100.00;99746.94;4123862;28;20264;-53
2024/01/11 02:15:11;;;;;;;6.23;5.67;;;;;;;-5.91;100.00;99750.31;4113665;28;21102;-53
2024/01/11 02:17:13;;;;;;;11.63;8.50;;;;;;;-6.02;100.00;99748.47;4127235;28;20272;-52
2024/01/11 02:19:17;;;;;;;12.87;9.17;;;;;;;-6.12;100.00;99758.16;4117913;28;20221;-52
2024/01/11 02:21:19;;;;;;;9.40;8.57;;;;;;;-6.21;100.00;99756.19;4117230;28;20230;-53
2024/01/11 02:23:21;;;;;;;9.57;8.87;;;;;;;-6.17;100.00;99760.31;4126336;28;20209;-53
2024/01/11 02:25:23;;;;;;;10.33;9.33;;;;;;;-6.19;100.00;99746.25;4128239;28;20296;-53
2024/01/11 02:27:25;;;;;;;8.37;7.80;;;;;;;-6.17;100.00;99754.97;4118201;28;20273;-52
2024/01/11 02:29:28;;;;;;;8.87;8.23;;;;;;;-6.15;100.00;99746.88;4116569;28;20228;-53
2024/01/11 02:31:30;;;;;;;8.57;8.07;;;;;;;-6.13;100.00;99753.78;4118034;28;20641;-53
2024/01/11 02:33:32;;;;;;;10.03;9.17;;;;;;;-6.04;100.00;99750.41;4116775;28;20206;-53
2024/01/11 02:35:35;;;;;;;13.53;12.47;;;;;;;-6.03;100.00;99749.44;4101328;28;20229;-53
2024/01/11 02:37:38;;;;;;;8.67;8.17;;;;;;;-6.07;100.00;99744.47;4109850;28;20218;-53
2024/01/11 02:39:39;;;;;;;14.73;11.67;;;;;;;-6.06;100.00;99746.16;4120896;28;20217;-53
2024/01/11 02:41:42;;;;;;;17.50;14.87;;;;;;;-6.07;100.00;99745.34;4119492;28;20225;-53
2024/01/11 02:43:48;;;;;;;14.17;10.60;;;;;;;-6.02;100.00;99745.81;4123242;28;20210;-53
2024/01/11 02:45:50;;;;;;;20.23;10.67;;;;;;;-6.10;100.00;99737.56;4121436;28;20672;-53
2024/01/11 02:47:51;;;;;;;15.33;10.20;;;;;;;-6.08;100.00;99732.97;4115677;28;20217;-53
2024/01/11 02:49:53;;;;;;;10.83;9.93;;;;;;;-6.11;100.00;99738.53;4114717;28;20700;-53
2024/01/11 02:51:55;;;;;;;10.33;9.63;;;;;;;-6.15;100.00;99726.41;4115861;28;20225;-54
2024/01/11 02:53:57;;;;;;;19.33;8.23;;;;;;;-6.17;100.00;99725.69;4114890;28;20214;-53
2024/01/11 02:56:00;;;;;;;10.80;7.90;;;;;;;-6.22;100.00;99724.34;4092879;28;20296;-53
2024/01/11 02:58:04;;;;;;;10.90;8.50;;;;;;;-6.25;100.00;99714.78;4119199;28;20210;-52
2024/01/11 03:00:06;;;;;;;8.23;7.53;;;;;;;-6.13;100.00;99719.16;4108430;28;20218;-53
2024/01/11 03:02:08;;;;;;;13.73;7.40;;;;;;;-6.14;100.00;99713.94;4116758;28;20235;-53
2024/01/11 03:04:10;;;;;;;7.33;6.83;;;;;;;-6.21;100.00;99716.25;4114691;28;20241;-54
2024/01/11 03:06:12;;;;;;;10.57;9.47;;;;;;;-6.15;100.00;99731.72;4119964;28;20202;-52
2024/01/11 03:08:14;;;;;;;9.43;8.80;;;;;;;-6.27;100.00;99716.72;4117201;28;20660;-52
2024/01/11 03:10:16;;;;;;;12.67;8.57;;;;;;;-6.24;100.00;99726.28;4113624;28;20234;-53
2024/01/11 03:12:18;;;;;;;13.37;8.83;;;;;;;-6.21;100.00;99720.72;4119558;28;20270;-53
2024/01/11 03:14:19;;;;;;;9.13;8.63;;;;;;;-6.17;100.00;99727.50;4125775;28;20206;-53
2024/01/11 03:16:21;;;;;;;13.30;7.77;;;;;;;-6.27;100.00;99724.69;4126606;28;20301;-53
2024/01/11 03:18:23;;;;;;;10.97;6.10;;;;;;;-6.27;100.00;99722.03;4126556;28;20210;-53
2024/01/11 03:20:25;;;;;;;9.57;8.70;;;;;;;-6.27;100.00;99719.38;4118624;28;20218;-54
2024/01/11 03:22:27;;;;;;;6.43;5.97;;;;;;;-6.27;100.00;99715.84;4125480;28;20288;-53
2024/01/11 03:24:29;;;;;;;6.57;6.00;;;;;;;-6.32;100.00;99724.19;4127924;28;20206;-53
2024/01/11 03:26:31;;;;;;;9.30;8.60;;;;;;;-6.31;100.00;99720.56;4120362;28;20688;-53
2024/01/11 03:28:32;;;;;;;8.93;8.20;;;;;;;-6.28;100.00;99725.63;4118769;28;20301;-51
2024/01/11 03:30:35;;;;;;;9.73;8.63;;;;;;;-6.32;100.00;99724.19;4107526;28;20227;-51
2024/01/11 03:32:36;;;;;;;7.93;7.33;;;;;;;-6.32;100.00;99718.00;4123561;28;20206;-53
2024/01/11 03:34:38;;;;;;;8.30;7.60;;;;;;;-6.35;100.00;99711.09;4127141;28;20218;-51
2024/01/11 03:36:40;;;;;;;7.77;7.07;;;;;;;-6.33;100.00;99711.84;4115253;28;20206;-54
2024/01/11 03:38:42;;;;;;;7.37;6.70;;;;;;;-6.35;100.00;99723.56;4122180;28;20252;-52
2024/01/11 03:40:44;;;;;;;8.07;7.67;;;;;;;-6.30;100.00;99713.44;4119161;28;20588;-53
2024/01/11 03:42:45;;;;;;;11.97;8.87;;;;;;;-6.34;100.00;99714.63;4125246;28;20785;-51
2024/01/11 03:44:47;;;;;;;9.03;7.93;;;;;;;-6.36;100.00;99716.56;4116801;28;20211;-52
2024/01/11 03:46:49;;;;;;;7.13;6.63;;;;;;;-6.29;100.00;99709.81;4117629;28;20218;-53
2024/01/11 03:48:51;;;;;;;8.43;7.67;;;;;;;-6.38;100.00;99719.31;4099166;28;20219;-51
2024/01/11 03:50:53;;;;;;;7.70;7.20;;;;;;;-6.28;100.00;99716.81;4119073;28;20712;-52
2024/01/11 03:52:55;;;;;;;8.53;7.90;;;;;;;-6.18;100.00;99709.81;4116911;28;20210;-54
2024/01/11 03:54:56;;;;;;;8.30;7.80;;;;;;;-6.23;100.00;99704.84;4117695;28;20245;-51
2024/01/11 03:56:58;;;;;;;9.40;7.27;;;;;;;-6.25;100.00;99713.91;4120801;28;20288;-51
2024/01/11 03:59:00;;;;;;;9.73;8.93;;;;;;;-6.34;100.00;99699.50;4119207;28;20202;-54
2024/01/11 04:01:02;;;;;;;8.37;7.57;;;;;;;-6.37;100.00;99707.69;4129585;28;20217;-51
2024/01/11 04:03:06;;;;;;;11.57;10.33;;;;;;;-6.37;100.00;99698.88;4126746;28;20224;-51
2024/01/11 04:05:08;;;;;;;8.73;7.77;;;;;;;-6.39;100.00;99704.31;4123480;28;20210;-54
2024/01/11 04:07:10;;;;;;;8.43;7.63;;;;;;;-6.39;100.00;99701.66;4123091;28;20229;-52
2024/01/11 04:09:11;;;;;;;8.23;7.47;;;;;;;-6.42;100.00;99701.88;4120698;28;20220;-52
2024/01/11 04:11:13;;;;;;;9.07;8.50;;;;;;;-6.41;100.00;99698.28;4120537;28;20281;-52
2024/01/11 04:13:15;;;;;;;10.13;9.33;;;;;;;-6.31;100.00;99696.59;4121928;28;20229;-52
2024/01/11 04:15:17;;;;;;;15.00;9.67;;;;;;;-6.35;100.00;99703.09;4124557;28;20214;-52
2024/01/11 04:17:18;;;;;;;7.63;7.00;;;;;;;-6.31;100.00;99698.41;4123974;28;20819;-51
2024/01/11 04:19:20;;;;;;;13.40;8.93;;;;;;;-6.41;100.00;99698.28;4121480;28;20313;-52
2024/01/11 04:21:28;;;;;;;10.77;8.20;;;;;;;-6.37;100.00;99696.22;4123048;28;20775;-52
2024/01/11 04:23:30;;;;;;;12.30;10.13;;;;;;;-6.29;100.00;99707.13;4126943;28;20210;-53
2024/01/11 04:25:32;;;;;;;9.17;7.77;;;;;;;-6.38;100.00;99697.16;4121983;28;20225;-52
2024/01/11 04:27:34;;;;;;;10.77;9.77;;;;;;;-6.46;100.00;99700.44;4125706;28;20221;-52
2024/01/11 04:29:35;;;;;;;10.07;9.27;;;;;;;-6.30;100.00;99700.94;4123685;28;20217;-54
2024/01/11 04:31:37;;;;;;;7.63;7.07;;;;;;;-6.39;100.00;99690.16;4113337;28;20787;-51
2024/01/11 04:33:42;;;;;;;12.43;8.87;;;;;;;-6.49;100.00;99692.66;4121012;28;20206;-51
2024/01/11 04:35:44;;;;;;;10.43;6.07;;;;;;;-6.43;100.00;99696.69;4121031;28;20839;-51
2024/01/11 04:37:46;;;;;;;8.83;8.07;;;;;;;-6.34;100.00;99696.84;4121923;28;20214;-52
2024/01/11 04:39:47;;;;;;;8.43;7.63;;;;;;;-6.40;100.00;99699.97;4112603;28;20206;-51
2024/01/11 04:41:49;;;;;;;6.47;5.70;;;;;;;-6.53;100.00;99703.66;4122449;28;20358;-51
2024/01/11 04:43:51;;;;;;;10.73;9.50;;;;;;;-6.56;100.00;99701.22;4131926;28;20213;-52
2024/01/11 04:45:52;;;;;;;10.70;8.90;;;;;;;-6.58;100.00;99698.69;4117167;28;20576;-52
2024/01/11 04:47:54;;;;;;;10.63;9.73;;;;;;;-6.55;100.00;99706.41;4121418;28;20218;-51
2024/01/11 04:49:56;;;;;;;7.80;7.10;;;;;;;-6.49;100.00;99711.28;4114381;28;20216;-51
2024/01/11 04:51:58;;;;;;;8.77;8.33;;;;;;;-6.38;100.00;99711.34;4117140;28;20260;-52
2024/01/11 04:54:00;;;;;;;18.73;12.60;;;;;;;-6.48;100.00;99717.47;4125880;28;20210;-51
2024/01/11 04:56:02;;;;;;;12.33;7.33;;;;;;;-6.56;100.00;99704.72;4122725;28;20621;-52
2024/01/11 04:58:04;;;;;;;8.27;7.77;;;;;;;-6.53;100.00;99712.50;4118138;28;20241;-52
2024/01/11 05:00:07;;;;;;;7.33;6.63;;;;;;;-6.52;100.00;99711.53;4120074;28;20242;-51
2024/01/11 05:02:08;;;;;;;14.47;9.87;;;;;;;-6.50;100.00;99720.22;4133445;28;20259;-51
2024/01/11 05:04:10;;;;;;;9.17;7.37;;;;;;;-6.40;100.00;99720.41;4119382;28;20222;-52
2024/01/11 05:06:19;;;;;;;17.80;10.50;;;;;;;-6.42;100.00;99720.50;4115645;28;20225;-51
2024/01/11 05:08:21;;;;;;;7.67;7.30;;;;;;;-6.50;100.00;99720.22;4100560;28;20198;-52
2024/01/11 05:10:22;;;;;;;10.27;9.67;;;;;;;-6.56;100.00;99719.84;4117655;28;20328;-52
2024/01/11 05:12:24;;;;;;;13.30;9.87;;;;;;;-6.57;100.00;99724.31;4121602;28;20276;-51
2024/01/11 05:14:26;;;;;;;8.07;7.47;;;;;;;-6.58;100.00;99722.63;4122156;28;20222;-52
2024/01/11 05:16:28;;;;;;;15.97;10.80;;;;;;;-6.59;100.00;99728.91;4126928;28;20210;-53
2024/01/11 05:18:30;;;;;;;15.27;10.60;;;;;;;-6.59;100.00;99715.59;4124723;28;20277;-51
2024/01/11 05:20:35;;;;;;;8.60;8.00;;;;;;;-6.55;100.00;99717.06;4123796;28;20666;-52
2024/01/11 05:22:37;;;;;;;10.50;9.83;;;;;;;-6.55;100.00;99722.38;4127250;28;20249;-52
2024/01/11 05:24:39;;;;;;;12.07;11.30;;;;;;;-6.46;100.00;99726.16;4119885;28;20210;-52
2024/01/11 05:26:40;;;;;;;8.03;7.50;;;;;;;-6.51;100.00;99715.88;4126870;28;20293;-51
2024/01/11 05:28:42;;;;;;;12.60;11.07;;;;;;;-6.56;100.00;99712.69;4122649;28;20650;-51
2024/01/11 05:30:44;;;;;;;16.63;8.57;;;;;;;-6.57;100.00;99708.34;4123526;28;20244;-51
2024/01/11 05:32:46;;;;;;;9.30;8.70;;;;;;;-6.59;100.00;99712.94;4117879;28;20619;-51
2024/01/11 05:34:48;;;;;;;8.93;8.00;;;;;;;-6.52;100.00;99722.16;4122787;28;20282;-52
2024/01/11 05:36:50;;;;;;;9.90;8.90;;;;;;;-6.45;100.00;99718.09;4120346;28;20737;-52
2024/01/11 05:38:51;;;;;;;10.57;8.07;;;;;;;-6.52;100.00;99711.53;4122843;28;20215;-51
2024/01/11 05:40:53;;;;;;;9.37;8.57;;;;;;;-6.51;100.00;99718.53;4119964;28;20277;-52
2024/01/11 05:42:55;;;;;;;9.67;8.50;;;;;;;-6.54;100.00;99723.25;4123804;28;20233;-51
2024/01/11 05:44:57;;;;;;;10.60;9.60;;;;;;;-6.47;100.00;99730.66;4135358;28;20674;-52
2024/01/11 05:46:59;;;;;;;12.97;11.23;;;;;;;-6.45;100.00;99734.06;4136639;28;20209;-52
2024/01/11 05:49:04;;;;;;;10.93;10.00;;;;;;;-6.57;100.00;99724.31;4133969;28;20271;-53
2024/01/11 05:51:06;;;;;;;9.13;8.27;;;;;;;-6.66;100.00;99735.66;4133227;28;20530;-52
2024/01/11 05:53:08;;;;;;;8.53;7.67;;;;;;;-6.65;100.00;99742.66;4136707;28;20218;-52
2024/01/11 05:55:09;;;;;;;11.37;10.57;;;;;;;-6.71;100.00;99731.59;4137287;28;20280;-51
2024/01/11 05:57:11;;;;;;;12.47;11.40;;;;;;;-6.52;100.00;99743.47;4134641;28;20209;-52
2024/01/11 05:59:13;;;;;;;9.47;8.77;;;;;;;-6.67;100.00;99741.94;4135897;28;20545;-52
2024/01/11 06:01:15;;;;;;;10.67;9.90;;;;;;;-6.71;100.00;99737.78;4137581;28;20225;-50
2024/01/11 06:03:17;;;;;;;9.23;8.53;;;;;;;-6.71;100.00;99732.47;4134689;28;20340;-51
2024/01/11 06:05:19;;;;;;;14.23;8.87;;;;;;;-6.75;100.00;99733.66;4140566;28;20300;-52
2024/01/11 06:07:20;;;;;;;6.90;6.30;;;;;;;-6.66;100.00;99735.66;4138070;28;20542;-50
2024/01/11 06:09:22;;;;;;;25.43;10.97;;;;;;;-6.51;100.00;99750.47;4141838;28;20209;-51
2024/01/11 06:11:24;;;;;;;13.97;12.73;;;;;;;-6.66;100.00;99743.63;4136395;28;20248;-52
2024/01/11 06:13:26;;;;;;;9.00;8.17;;;;;;;-6.63;100.00;99746.06;4121101;28;20252;-51
2024/01/11 06:15:28;;;;;;;6.60;6.30;;;;;;;-6.65;100.00;99750.66;4130548;28;20217;-54
2024/01/11 06:17:29;;;;;;;15.63;9.77;;;;;;;-6.75;100.00;99744.28;4139213;28;20965;-54
2024/01/11 06:19:32;;;;;;;11.73;10.40;;;;;;;-6.82;100.00;99744.88;4131961;28;20221;-53
2024/01/11 06:21:34;;;;;;;9.27;8.60;;;;;;;-6.79;100.00;99745.50;4132684;28;20228;-54
2024/01/11 06:23:36;;;;;;;9.07;8.47;;;;;;;-6.75;100.00;99746.94;4137404;28;20216;-53
2024/01/11 06:25:38;;;;;;;17.60;8.37;;;;;;;-6.63;100.00;99743.38;4136405;28;20260;-53
2024/01/11 06:27:42;;;;;;;8.07;6.93;;;;;;;-6.65;100.00;99745.31;4136649;28;20208;-53
2024/01/11 06:29:44;;;;;;;13.83;8.20;;;;;;;-6.74;100.00;99754.00;4128036;28;20656;-50
2024/01/11 06:31:46;;;;;;;7.40;7.00;;;;;;;-6.77;100.00;99748.03;4128614;28;20768;-52
2024/01/11 06:33:48;;;;;;;7.37;6.77;;;;;;;-6.80;100.00;99754.44;4131200;28;20213;-51
2024/01/11 06:35:52;;;;;;;18.37;8.93;;;;;;;-6.76;100.00;99758.56;4136065;28;20216;-53
2024/01/11 06:37:54;;;;;;;12.20;11.07;;;;;;;-6.71;100.00;99759.06;4148014;28;20216;-53
2024/01/11 06:39:56;;;;;;;11.20;10.03;;;;;;;-6.73;100.00;99763.66;4136224;28;20224;-54
2024/01/11 06:41:59;;;;;;;10.57;9.33;;;;;;;-6.71;100.00;99769.72;4135393;28;20280;-53
2024/01/11 06:44:00;;;;;;;8.30;7.60;;;;;;;-6.73;100.00;99770.78;4140543;28;20267;-53
2024/01/11 06:46:06;;;;;;;9.60;8.97;;;;;;;-6.79;100.00;99777.41;4126428;28;20625;-53
2024/01/11 06:48:07;;;;;;;11.57;9.50;;;;;;;-6.83;100.00;99783.91;4142172;28;20666;-52
2024/01/11 06:50:12;;;;;;;11.80;11.00;;;;;;;-6.85;100.00;99783.16;4123586;28;20214;-53
2024/01/11 06:52:13;;;;;;;21.03;9.87;;;;;;;-6.87;100.00;99794.88;4133883;28;20245;-53
2024/01/11 06:54:15;;;;;;;11.77;10.70;;;;;;;-6.77;100.00;99791.44;4141697;28;20257;-53
2024/01/11 06:56:19;;;;;;;13.40;11.90;;;;;;;-6.78;100.00;99804.84;4135544;28;20225;-52
2024/01/11 06:58:24;;;;;;;12.70;11.73;;;;;;;-6.84;100.00;99806.16;4133831;28;20300;-54
2024/01/11 07:00:26;;;;;;;11.63;10.73;;;;;;;-6.77;100.00;99806.56;4120864;28;20672;-53
2024/01/11 07:02:27;;;;;;;11.10;10.20;;;;;;;-6.82;100.00;99814.84;4133996;28;20206;-53
2024/01/11 07:04:29;;;;;;;13.80;12.20;;;;;;;-6.69;100.00;99810.34;4137914;28;20276;-54
2024/01/11 07:06:35;;;;;;;12.50;11.20;;;;;;;-6.70;100.00;99819.31;4135040;28;20217;-54
2024/01/11 07:08:36;;;;;;;12.47;11.30;;;;;;;-6.83;100.00;99813.16;4140090;28;20213;-53
2024/01/11 07:10:38;;;;;;;18.93;10.80;;;;;;;-6.70;100.00;99818.47;4139961;28;20209;-54
2024/01/11 07:12:42;;;;;;;9.27;8.60;;;;;;;-6.77;100.00;99828.69;4138441;28;20738;-54
2024/01/11 07:14:44;;;;;;;9.13;8.40;;;;;;;-6.77;100.00;99830.50;4130668;28;20301;-54
2024/01/11 07:16:46;;;;;;;11.57;10.03;;;;;;;-6.74;100.00;99825.81;4135153;28;20221;-54
2024/01/11 07:18:48;;;;;;;10.00;8.87;;;;;;;-6.75;100.00;99840.06;4136219;28;20283;-51
2024/01/11 07:20:50;;;;;;;14.80;10.77;;;;;;;-6.58;100.00;99834.38;4135798;28;20228;-52
2024/01/11 07:22:52;;;;;;;10.43;9.60;;;;;;;-6.69;100.00;99836.97;4139623;28;20224;-52
2024/01/11 07:24:54;;;;;;;11.03;9.97;;;;;;;-6.65;100.00;99838.44;4134786;28;20268;-52
2024/01/11 07:26:56;;;;;;;13.23;9.07;;;;;;;-6.72;100.00;99839.84;4135092;28;21156;-52
2024/01/11 07:28:58;;;;;;;10.73;9.70;;;;;;;-6.67;100.00;99837.72;4133873;28;20308;-52
2024/01/11 07:30:59;;;;;;;7.40;6.77;;;;;;;-6.66;100.00;99844.75;4131881;28;20284;-53
2024/01/11 07:33:02;;;;;;;12.67;10.67;;;;;;;-6.66;100.00;99836.75;4128996;28;20217;-52
2024/01/11 07:35:06;;;;;;;10.93;9.93;;;;;;;-6.62;100.00;99843.53;4137170;28;20213;-52
2024/01/11 07:37:13;;;;;;;20.10;12.37;;;;;;;-6.74;100.00;99844.44;4129861;28;20205;-51
2024/01/11 07:39:15;;;;;;;23.23;11.33;;;;;;;-6.66;100.00;99847.41;4130921;28;20210;-51
2024/01/11 07:41:17;;;;;;;10.10;9.57;;;;;;;-6.53;100.00;99844.69;4134255;28;20598;-52
2024/01/11 07:43:18;;;;;;;12.03;10.27;;;;;;;-6.90;100.00;99846.47;4138219;28;20292;-52
2024/01/11 07:45:21;;;;;;;7.33;6.77;;;;;;;-7.03;100.00;99842.97;4137443;28;20217;-52
2024/01/11 07:47:22;;;;;;;10.77;9.87;;;;;;;-7.07;100.00;99843.31;4119692;28;20248;-53
2024/01/11 07:49:24;;;;;;;8.40;7.90;;;;;;;-6.98;100.00;99846.19;4133588;28;20205;-52
2024/01/11 07:51:27;;;;;;;13.23;12.17;;;;;;;-6.92;100.00;99845.75;4133297;28;20257;-53
2024/01/11 07:53:28;;;;;;;26.63;13.10;;;;;;;-6.91;100.00;99851.91;4135221;28;20875;-53
2024/01/11 07:55:31;;;;;;;22.77;13.70;;;;;;;-6.83;100.00;99861.03;4130370;28;20227;-53
2024/01/11 07:57:34;;;;;;;32.27;18.03;;;;;;;-6.78;100.00;99863.38;4138650;28;20259;-53
2024/01/11 07:59:35;;;;;;;26.27;15.83;;;;;;;-6.74;100.00;99865.72;4133531;28;20214;-54
2024/01/11 08:01:38;;;;;;;28.70;13.87;;;;;;;-6.69;100.00;99868.06;4135148;28;20233;-51
2024/01/11 08:03:41;;;;;;;17.80;16.07;;;;;;;-6.51;100.00;99872.91;4125930;28;20206;-52
2024/01/11 08:05:44;;;;;;;14.27;13.47;;;;;;;-6.48;100.00;99864.69;4139766;28;20244;-52
2024/01/11 08:07:46;;;;;;;14.10;12.67;;;;;;;-6.53;100.00;99864.19;4139744;28;20288;-52
2024/01/11 08:09:48;;;;;;;13.97;11.47;;;;;;;-6.52;100.00;99860.56;4125402;28;22278;-51
2024/01/11 08:11:49;;;;;;;35.70;14.00;;;;;;;-6.49;100.00;99860.31;4141520;28;20247;-52
2024/01/11 08:13:54;;;;;;;16.70;10.93;;;;;;;-6.46;100.00;99865.44;4133400;28;20738;-52
2024/01/11 08:15:57;;;;;;;18.73;13.30;;;;;;;-6.47;100.00;99868.19;4139160;28;20237;-52
2024/01/11 08:18:00;;;;;;;9.90;9.10;;;;;;;-6.42;100.00;99866.06;4133663;28;20675;-52
2024/01/11 08:20:03;;;;;;;11.73;10.97;;;;;;;-6.26;100.00;99861.31;4131874;28;20280;-51
2024/01/11 08:22:05;;;;;;;14.10;11.43;;;;;;;-6.27;100.00;99855.16;4134714;28;20242;-52
2024/01/11 08:24:07;;;;;;;12.43;11.17;;;;;;;-6.27;100.00;99854.28;4135261;28;20209;-51
2024/01/11 08:26:10;;;;;;;13.37;12.37;;;;;;;-6.30;100.00;99865.19;4136582;28;20209;-52
2024/01/11 08:28:11;;;;;;;12.33;11.33;;;;;;;-6.28;100.00;99865.91;4122571;28;20213;-51
2024/01/11 08:30:13;;;;;;;11.63;10.23;;;;;;;-6.30;100.00;99866.00;4131853;28;20218;-51
2024/01/11 08:32:16;;;;;;;10.67;8.97;;;;;;;-6.14;100.00;99855.09;4137409;28;20228;-51
2024/01/11 08:34:32;;;;;;;11.47;9.37;;;;;;;-5.65;100.00;99864.59;4139446;28;20671;-51
2024/01/11 08:36:34;;;;;;;11.77;10.87;;;;;;;-5.00;100.00;99868.38;4118398;28;20203;-51
2024/01/11 08:38:36;;;;;;;11.27;8.53;;;;;;;-3.97;100.00;99861.69;4134411;28;20877;-52
2024/01/11 08:40:38;;;;;;;9.87;8.57;;;;;;;-3.43;100.00;99854.41;4126745;28;20300;-52
2024/01/11 08:42:41;;;;;;;9.33;8.37;;;;;;;-2.75;100.00;99865.44;4144189;28;20206;-52
2024/01/11 08:44:43;;;;;;;12.37;7.70;;;;;;;-2.99;100.00;99867.53;4134605;28;20219;-53
2024/01/11 08:46:44;;;;;;;13.67;7.93;;;;;;;-3.37;100.00;99867.28;4138775;28;20214;-53
2024/01/11 08:48:46;;;;;;;21.20;7.67;;;;;;;-3.74;100.00;99858.00;4139736;28;20241;-53
2024/01/11 08:50:48;;;;;;;24.87;8.10;;;;;;;-3.85;100.00;99876.72;4138594;28;20229;-52
2024/01/11 08:52:50;;;;;;;14.80;9.80;;;;;;;-4.12;100.00;99887.00;4143450;28;20233;-53
2024/01/11 08:54:51;;;;;;;12.37;9.93;;;;;;;-4.39;100.00;99882.06;4137630;28;20214;-53
2024/01/11 08:56:53;;;;;;;9.03;8.00;;;;;;;-4.37;100.00;99876.59;4139793;28;20217;-53
2024/01/11 08:58:55;;;;;;;14.60;9.00;;;;;;;-4.44;100.00;99880.75;4139806;28;20213;-53
2024/01/11 09:00:57;;;;;;;10.60;9.30;;;;;;;-4.55;100.00;99876.28;4140100;28;21349;-53
2024/01/11 09:02:59;;;;;;;11.37;10.50;;;;;;;-4.52;100.00;99870.69;4134231;28;20459;-53
2024/01/11 09:05:02;;;;;;;12.33;9.67;;;;;;;-4.57;100.00;99872.88;4142371;28;20293;-53
2024/01/11 09:07:03;;;;;;;7.90;7.10;;;;;;;-4.57;100.00;99872.03;4133830;28;20218;-52
2024/01/11 09:09:09;;;;;;;19.40;8.97;;;;;;;-4.53;100.00;99868.97;4136061;28;20213;-53
2024/01/11 09:11:11;;;;;;;10.73;9.77;;;;;;;-4.53;100.00;99873.50;4138537;28;20395;-52
2024/01/11 09:13:13;;;;;;;14.30;9.23;;;;;;;-4.56;100.00;99868.38;4135840;28;20197;-52
2024/01/11 09:15:15;;;;;;;14.03;11.53;;;;;;;-4.54;100.00;99863.78;4136460;28;20686;-53
2024/01/11 09:17:17;;;;;;;22.33;11.80;;;;;;;-4.41;100.00;99856.47;4135594;28;20213;-52
2024/01/11 09:19:19;;;;;;;13.63;9.30;;;;;;;-4.26;100.00;99860.56;4137741;28;20205;-51
2024/01/11 09:21:21;;;;;;;12.50;10.40;;;;;;;-4.22;100.00;99857.53;4121806;28;20229;-52
2024/01/11 09:23:22;;;;;;;14.77;9.57;;;;;;;-4.22;100.00;99856.66;4136895;28;20205;-52